createdAt,value
2022-12-04T00:00:01.818Z,62.40
2022-12-04T00:01:09.289Z,64.20
2022-12-04T00:02:14.506Z,68.05
2022-12-04T00:03:17.629Z,63.05
2022-12-04T00:04:21.445Z,61.53
2022-12-04T00:05:24.150Z,61.92
2022-12-04T00:06:28.027Z,54.78
2022-12-04T00:07:30.952Z,53.30
2022-12-04T00:08:35.237Z,54.20
2022-12-04T00:09:39.086Z,60.03
2022-12-04T00:10:43.622Z,57.78
2022-12-04T00:11:47.398Z,57.83
2022-12-04T00:12:50.107Z,56.35
2022-12-04T00:13:54.245Z,54.30
2022-12-04T00:16:22.833Z,53.15
2022-12-04T00:17:26.968Z,55.70
2022-12-04T00:18:30.787Z,51.75
2022-12-04T00:19:33.727Z,51.22
2022-12-04T00:20:41.307Z,52.03
2022-12-04T00:21:46.272Z,57.40
2022-12-04T00:22:49.106Z,53.95
2022-12-04T00:23:53.105Z,52.22
2022-12-04T00:24:55.816Z,54.35
2022-12-04T00:26:02.181Z,51.47
2022-12-04T00:27:05.940Z,50.30
2022-12-04T00:28:08.725Z,54.60
2022-12-04T00:29:12.479Z,51.92
2022-12-04T00:30:15.345Z,52.65
2022-12-04T00:31:21.022Z,52.22
2022-12-04T00:32:23.775Z,47.22
2022-12-04T00:33:28.917Z,50.00
2022-12-04T00:34:31.615Z,50.70
2022-12-04T00:35:35.389Z,47.28
2022-12-04T00:36:38.499Z,48.10
2022-12-04T00:37:42.207Z,46.25
2022-12-04T00:38:45.358Z,48.15
2022-12-04T00:39:49.239Z,48.92
2022-12-04T00:40:52.084Z,45.63
2022-12-04T00:41:55.747Z,44.75
2022-12-04T00:42:58.430Z,50.35
2022-12-04T00:44:03.159Z,52.08
2022-12-04T00:45:06.887Z,46.75
2022-12-04T00:46:10.863Z,50.90
2022-12-04T00:47:13.774Z,47.35
2022-12-04T00:48:17.918Z,48.80
2022-12-04T00:49:21.996Z,49.85
2022-12-04T00:50:25.875Z,50.85
2022-12-04T00:51:29.038Z,53.80
2022-12-04T00:52:32.727Z,51.17
2022-12-04T00:53:35.835Z,48.58
2022-12-04T00:54:39.617Z,47.80
2022-12-04T00:55:43.207Z,47.45
2022-12-04T00:56:46.992Z,45.05
2022-12-04T00:57:49.638Z,48.53
2022-12-04T00:58:54.103Z,50.35
2022-12-04T00:59:57.009Z,53.22
2022-12-04T01:01:04.602Z,56.58
2022-12-04T01:02:07.425Z,50.05
2022-12-04T01:03:11.599Z,49.00
2022-12-04T01:04:14.402Z,47.97
2022-12-04T01:05:19.979Z,47.97
2022-12-04T01:06:24.365Z,49.42
2022-12-04T01:07:28.179Z,48.53
2022-12-04T01:08:31.252Z,48.17
2022-12-04T01:09:35.415Z,54.05
2022-12-04T01:10:39.687Z,53.08
2022-12-04T01:11:43.420Z,49.55
2022-12-04T01:12:46.246Z,45.80
2022-12-04T01:13:50.287Z,51.30
2022-12-04T01:14:53.007Z,49.72
2022-12-04T01:15:56.782Z,51.05
2022-12-04T01:16:59.675Z,51.22
2022-12-04T01:18:03.440Z,55.08
2022-12-04T01:19:07.236Z,49.63
2022-12-04T01:20:12.756Z,50.45
2022-12-04T01:21:17.025Z,49.10
2022-12-04T01:22:20.719Z,51.35
2022-12-04T01:23:23.481Z,51.78
2022-12-04T01:24:27.200Z,52.38
2022-12-04T01:27:06.306Z,51.88
2022-12-04T01:28:09.293Z,52.17
2022-12-04T01:29:13.505Z,53.67
2022-12-04T01:30:16.424Z,53.35
2022-12-04T01:31:22.314Z,55.28
2022-12-04T01:32:26.103Z,46.00
2022-12-04T01:33:29.188Z,49.47
2022-12-04T01:34:32.908Z,54.55
2022-12-04T01:35:35.654Z,53.85
2022-12-04T01:36:40.793Z,53.30
2022-12-04T01:37:43.535Z,52.20
2022-12-04T01:38:47.654Z,51.83
2022-12-04T01:39:50.353Z,58.08
2022-12-04T01:40:54.826Z,52.85
2022-12-04T01:41:57.556Z,52.78
2022-12-04T01:43:01.760Z,47.80
2022-12-04T01:44:13.085Z,56.20
2022-12-04T01:45:41.013Z,50.40
2022-12-04T01:46:44.895Z,47.20
2022-12-04T01:47:48.773Z,47.67
2022-12-04T01:48:53.226Z,50.55
2022-12-04T01:49:57.281Z,49.83
2022-12-04T01:51:04.849Z,45.95
2022-12-04T01:52:15.822Z,48.40
2022-12-04T01:53:18.873Z,47.88
2022-12-04T01:54:28.982Z,46.38
2022-12-04T01:55:32.324Z,47.75
2022-12-04T01:56:39.608Z,46.63
2022-12-04T01:57:42.854Z,42.85
2022-12-04T01:58:50.022Z,50.28
2022-12-04T01:59:55.768Z,44.65
2022-12-04T02:01:08.247Z,46.92
2022-12-04T02:02:13.271Z,51.97
2022-12-04T02:03:17.013Z,48.28
2022-12-04T02:04:20.293Z,46.72
2022-12-04T02:05:25.260Z,49.08
2022-12-04T02:06:27.965Z,45.72
2022-12-04T02:07:33.680Z,47.03
2022-12-04T02:08:36.823Z,48.17
2022-12-04T02:09:41.306Z,50.20
2022-12-04T02:10:52.455Z,51.30
2022-12-04T02:12:00.653Z,50.03
2022-12-04T02:13:08.482Z,51.95
2022-12-04T02:14:20.873Z,50.97
2022-12-04T02:15:25.913Z,52.78
2022-12-04T02:16:35.278Z,51.25
2022-12-04T02:17:41.535Z,52.20
2022-12-04T02:18:51.955Z,49.10
2022-12-04T02:20:10.024Z,51.83
2022-12-04T02:21:16.113Z,51.10
2022-12-04T02:22:28.657Z,48.92
2022-12-04T02:23:57.413Z,53.65
2022-12-04T02:25:08.295Z,45.55
2022-12-04T02:26:22.821Z,54.08
2022-12-04T02:27:48.564Z,55.15
2022-12-04T02:28:54.482Z,52.15
2022-12-04T02:30:01.099Z,56.08
2022-12-04T02:31:05.772Z,47.58
2022-12-04T02:32:16.611Z,51.13
2022-12-04T02:33:22.091Z,58.83
2022-12-04T02:34:30.094Z,55.33
2022-12-04T02:35:36.877Z,51.20
2022-12-04T02:36:44.957Z,51.33
2022-12-04T02:37:50.132Z,52.13
2022-12-04T02:38:57.594Z,52.35
2022-12-04T02:40:05.643Z,51.17
2022-12-04T02:41:14.415Z,52.53
2022-12-04T02:42:20.247Z,50.70
2022-12-04T02:43:27.345Z,51.05
2022-12-04T02:44:33.186Z,55.15
2022-12-04T02:45:40.050Z,47.75
2022-12-04T02:46:44.522Z,46.10
2022-12-04T02:47:48.413Z,46.70
2022-12-04T02:48:52.907Z,50.03
2022-12-04T02:49:59.305Z,49.40
2022-12-04T02:51:02.682Z,48.78
2022-12-04T02:52:08.691Z,51.20
2022-12-04T02:53:14.134Z,49.28
2022-12-04T02:54:22.035Z,54.03
2022-12-04T02:55:27.762Z,47.58
2022-12-04T02:56:33.769Z,50.60
2022-12-04T02:57:39.234Z,49.38
2022-12-04T02:58:48.773Z,49.25
2022-12-04T02:59:53.155Z,50.65
2022-12-04T03:00:59.290Z,50.53
2022-12-04T03:02:04.638Z,51.28
2022-12-04T03:03:10.380Z,47.75
2022-12-04T03:04:16.092Z,49.05
2022-12-04T03:05:23.272Z,46.38
2022-12-04T03:06:28.775Z,52.20
2022-12-04T03:07:35.993Z,47.72
2022-12-04T03:08:42.813Z,46.17
2022-12-04T03:09:50.048Z,48.25
2022-12-04T03:10:55.386Z,47.20
2022-12-04T03:12:01.516Z,48.50
2022-12-04T03:13:07.946Z,52.83
2022-12-04T03:14:15.612Z,50.22
2022-12-04T03:15:20.688Z,51.55
2022-12-04T03:16:26.247Z,49.42
2022-12-04T03:17:33.448Z,49.83
2022-12-04T03:18:40.720Z,55.13
2022-12-04T03:19:47.592Z,55.00
2022-12-04T03:20:55.615Z,56.00
2022-12-04T03:22:00.665Z,56.05
2022-12-04T03:23:08.397Z,53.35
2022-12-04T03:24:15.104Z,49.25
2022-12-04T03:25:19.004Z,51.90
2022-12-04T03:26:26.314Z,55.70
2022-12-04T03:27:34.047Z,54.35
2022-12-04T03:28:47.727Z,50.55
2022-12-04T03:29:56.938Z,60.00
2022-12-04T03:31:03.593Z,52.05
2022-12-04T03:32:11.644Z,55.92
2022-12-04T03:33:17.494Z,51.10
2022-12-04T03:34:28.104Z,53.83
2022-12-04T03:35:34.745Z,49.50
2022-12-04T03:36:39.664Z,58.40
2022-12-04T03:37:47.585Z,53.88
2022-12-04T03:38:55.513Z,55.42
2022-12-04T03:40:04.041Z,58.35
2022-12-04T03:41:10.954Z,58.00
2022-12-04T03:42:16.843Z,59.15
2022-12-04T03:43:25.374Z,58.28
2022-12-04T03:44:33.432Z,59.47
2022-12-04T03:45:44.609Z,56.58
2022-12-04T03:46:51.035Z,59.60
2022-12-04T03:47:58.794Z,57.78
2022-12-04T03:49:07.595Z,59.47
2022-12-04T03:50:15.253Z,68.65
2022-12-04T03:51:23.045Z,65.88
2022-12-04T03:52:30.762Z,62.72
2022-12-04T03:53:37.236Z,56.28
2022-12-04T03:54:45.085Z,61.20
2022-12-04T03:55:50.194Z,70.40
2022-12-04T03:56:56.874Z,54.45
2022-12-04T03:58:01.700Z,64.40
2022-12-04T03:59:11.835Z,59.00
2022-12-04T04:00:16.336Z,60.85
2022-12-04T04:01:24.605Z,60.72
2022-12-04T04:02:30.313Z,60.15
2022-12-04T04:03:38.164Z,60.90
2022-12-04T04:04:41.446Z,56.47
2022-12-04T04:05:49.512Z,59.25
2022-12-04T04:06:55.073Z,52.72
2022-12-04T04:08:21.856Z,54.92
2022-12-04T04:09:27.515Z,56.28
2022-12-04T04:10:31.445Z,53.80
2022-12-04T04:11:36.601Z,56.88
2022-12-04T04:12:44.673Z,53.25
2022-12-04T04:14:08.635Z,51.22
2022-12-04T04:15:32.520Z,47.72
2022-12-04T04:16:56.963Z,46.67
2022-12-04T04:18:17.786Z,47.97
2022-12-04T04:19:39.668Z,44.03
2022-12-04T04:21:03.369Z,49.85
2022-12-04T04:22:30.660Z,49.88
2022-12-04T04:23:56.085Z,46.58
2022-12-04T04:25:04.325Z,49.85
2022-12-04T04:26:07.944Z,45.60
2022-12-04T04:27:11.895Z,49.17
2022-12-04T04:28:34.488Z,47.15
2022-12-04T04:29:38.777Z,45.65
2022-12-04T04:30:41.522Z,45.67
2022-12-04T04:31:50.753Z,47.33
2022-12-04T04:32:59.934Z,49.83
2022-12-04T04:34:06.013Z,48.08
2022-12-04T04:35:16.856Z,51.53
2022-12-04T04:36:24.993Z,51.65
2022-12-04T04:37:32.648Z,52.47
2022-12-04T04:38:40.147Z,53.83
2022-12-04T04:39:48.003Z,50.97
2022-12-04T04:40:54.954Z,47.95
2022-12-04T04:42:03.388Z,44.85
2022-12-04T04:43:10.257Z,45.50
2022-12-04T04:44:19.352Z,51.33
2022-12-04T04:45:24.633Z,45.38
2022-12-04T04:46:32.193Z,51.70
2022-12-04T04:47:39.505Z,46.85
2022-12-04T04:48:45.717Z,49.28
2022-12-04T04:49:49.784Z,51.67
2022-12-04T04:50:54.242Z,48.35
2022-12-04T04:51:57.484Z,48.80
2022-12-04T04:53:04.052Z,46.10
2022-12-04T04:54:09.962Z,48.53
2022-12-04T04:55:13.975Z,46.72
2022-12-04T04:56:16.782Z,44.85
2022-12-04T04:57:38.344Z,48.05
2022-12-04T04:58:41.762Z,43.30
2022-12-04T04:59:45.504Z,49.25
2022-12-04T05:00:54.315Z,43.90
2022-12-04T05:01:58.621Z,44.95
2022-12-04T05:03:02.928Z,46.25
2022-12-04T05:04:08.099Z,48.67
2022-12-04T05:05:14.033Z,47.40
2022-12-04T05:06:17.661Z,49.08
2022-12-04T05:07:20.376Z,49.70
2022-12-04T05:08:24.494Z,48.90
2022-12-04T05:09:27.212Z,44.70
2022-12-04T05:10:30.934Z,44.85
2022-12-04T05:11:33.571Z,51.92
2022-12-04T05:12:37.478Z,50.03
2022-12-04T05:13:40.445Z,49.35
2022-12-04T05:14:44.195Z,45.55
2022-12-04T05:15:56.931Z,46.35
2022-12-04T05:17:02.055Z,44.70
2022-12-04T05:18:06.644Z,44.55
2022-12-04T05:19:27.624Z,44.45
2022-12-04T05:20:31.277Z,43.88
2022-12-04T05:21:34.451Z,45.17
2022-12-04T05:22:38.714Z,41.58
2022-12-04T05:23:41.423Z,41.08
2022-12-04T05:24:45.114Z,46.50
2022-12-04T05:25:47.812Z,45.47
2022-12-04T05:26:51.785Z,45.55
2022-12-04T05:27:54.433Z,39.58
2022-12-04T05:28:58.130Z,42.42
2022-12-04T05:30:00.825Z,40.60
2022-12-04T05:31:05.311Z,44.15
2022-12-04T05:32:08.120Z,44.60
2022-12-04T05:33:13.283Z,44.95
2022-12-04T05:34:16.006Z,43.25
2022-12-04T05:35:19.774Z,42.22
2022-12-04T05:36:22.462Z,42.85
2022-12-04T05:37:26.574Z,39.25
2022-12-04T05:38:29.468Z,42.58
2022-12-04T05:39:33.411Z,43.42
2022-12-04T05:40:36.854Z,41.35
2022-12-04T05:41:40.544Z,36.40
2022-12-04T05:42:43.653Z,37.88
2022-12-04T05:43:47.335Z,43.22
2022-12-04T05:44:50.270Z,45.33
2022-12-04T05:45:56.156Z,41.58
2022-12-04T05:46:59.260Z,41.30
2022-12-04T05:48:03.086Z,44.85
2022-12-04T05:49:07.457Z,45.70
2022-12-04T05:50:12.285Z,42.08
2022-12-04T05:51:14.993Z,42.55
2022-12-04T05:52:18.772Z,46.50
2022-12-04T05:53:21.546Z,45.35
2022-12-04T05:54:25.296Z,43.15
2022-12-04T05:55:27.962Z,42.53
2022-12-04T05:56:31.696Z,46.42
2022-12-04T05:57:35.484Z,44.78
2022-12-04T05:58:38.691Z,42.47
2022-12-04T05:59:42.496Z,46.40
2022-12-04T06:00:45.154Z,43.95
2022-12-04T06:01:48.935Z,43.33
2022-12-04T06:02:51.657Z,41.13
2022-12-04T06:03:55.564Z,41.47
2022-12-04T06:04:59.694Z,42.90
2022-12-04T06:06:03.446Z,43.90
2022-12-04T06:07:07.074Z,48.65
2022-12-04T06:08:10.855Z,47.30
2022-12-04T06:09:13.712Z,49.70
2022-12-04T06:10:17.716Z,43.75
2022-12-04T06:11:22.282Z,46.42
2022-12-04T06:12:25.976Z,44.78
2022-12-04T06:13:28.686Z,45.88
2022-12-04T06:14:37.703Z,43.03
2022-12-04T06:15:42.395Z,46.63
2022-12-04T06:16:47.956Z,45.33
2022-12-04T06:17:50.635Z,46.67
2022-12-04T06:18:55.763Z,41.92
2022-12-04T06:20:00.502Z,47.00
2022-12-04T06:21:04.719Z,49.97
2022-12-04T06:22:08.515Z,46.63
2022-12-04T06:23:11.255Z,49.13
2022-12-04T06:24:16.220Z,45.22
2022-12-04T06:25:19.005Z,43.03
2022-12-04T06:26:23.413Z,45.22
2022-12-04T06:27:27.661Z,49.58
2022-12-04T06:28:32.288Z,46.65
2022-12-04T06:29:35.088Z,43.33
2022-12-04T06:30:38.775Z,53.60
2022-12-04T06:31:42.126Z,47.08
2022-12-04T06:32:45.922Z,56.42
2022-12-04T06:33:48.661Z,50.55
2022-12-04T06:34:53.820Z,48.92
2022-12-04T06:36:01.839Z,53.75
2022-12-04T06:37:05.584Z,49.22
2022-12-04T06:38:08.368Z,52.00
2022-12-04T06:39:17.026Z,49.55
2022-12-04T06:40:21.454Z,44.83
2022-12-04T06:41:26.804Z,49.17
2022-12-04T06:42:29.512Z,58.13
2022-12-04T06:43:33.765Z,51.70
2022-12-04T06:44:36.533Z,47.40
2022-12-04T06:45:40.418Z,51.75
2022-12-04T06:46:46.881Z,49.92
2022-12-04T06:47:50.917Z,57.45
2022-12-04T06:48:55.037Z,50.25
2022-12-04T06:49:58.993Z,45.00
2022-12-04T06:51:04.890Z,47.20
2022-12-04T06:52:08.624Z,48.85
2022-12-04T06:53:11.274Z,45.60
2022-12-04T06:54:15.163Z,52.08
2022-12-04T06:55:18.015Z,50.17
2022-12-04T06:56:24.073Z,48.78
2022-12-04T06:57:26.738Z,45.70
2022-12-04T06:58:30.862Z,44.38
2022-12-04T06:59:34.068Z,52.33
2022-12-04T07:00:37.922Z,46.63
2022-12-04T07:01:40.677Z,45.63
2022-12-04T07:02:44.560Z,48.30
2022-12-04T07:03:51.335Z,44.88
2022-12-04T07:04:57.495Z,47.22
2022-12-04T07:06:00.175Z,43.95
2022-12-04T07:07:05.373Z,47.28
2022-12-04T07:08:08.160Z,38.78
2022-12-04T07:09:13.593Z,43.47
2022-12-04T07:10:16.384Z,45.65
2022-12-04T07:11:20.410Z,43.97
2022-12-04T07:12:27.246Z,44.75
2022-12-04T07:13:30.964Z,42.75
2022-12-04T07:14:33.684Z,43.13
2022-12-04T07:15:38.723Z,44.25
2022-12-04T07:16:42.868Z,41.97
2022-12-04T07:17:46.736Z,37.80
2022-12-04T07:18:50.674Z,43.63
2022-12-04T07:19:54.643Z,43.65
2022-12-04T07:20:57.642Z,41.53
2022-12-04T07:22:01.346Z,42.28
2022-12-04T07:23:07.341Z,43.40
2022-12-04T07:24:15.647Z,42.05
2022-12-04T07:25:18.362Z,42.22
2022-12-04T07:26:22.447Z,42.05
2022-12-04T07:27:26.235Z,42.47
2022-12-04T07:28:28.864Z,42.53
2022-12-04T07:29:33.732Z,42.08
2022-12-04T07:30:37.852Z,42.60
2022-12-04T07:31:41.707Z,43.70
2022-12-04T07:32:44.354Z,40.72
2022-12-04T07:33:49.163Z,45.28
2022-12-04T07:34:51.902Z,40.75
2022-12-04T07:35:58.754Z,39.97
2022-12-04T07:37:01.432Z,39.75
2022-12-04T07:38:06.577Z,39.97
2022-12-04T07:39:09.288Z,42.78
2022-12-04T07:40:14.335Z,39.85
2022-12-04T07:41:17.793Z,43.13
2022-12-04T07:42:24.214Z,41.67
2022-12-04T07:43:27.591Z,46.13
2022-12-04T07:44:32.449Z,43.42
2022-12-04T07:45:35.310Z,36.70
2022-12-04T07:46:39.148Z,46.03
2022-12-04T07:47:41.855Z,41.05
2022-12-04T07:48:45.913Z,40.42
2022-12-04T07:49:48.653Z,36.97
2022-12-04T07:50:52.456Z,38.78
2022-12-04T07:51:55.077Z,50.67
2022-12-04T07:52:58.811Z,40.03
2022-12-04T07:54:04.561Z,48.08
2022-12-04T07:55:08.014Z,45.97
2022-12-04T07:56:12.849Z,46.92
2022-12-04T07:57:15.814Z,44.85
2022-12-04T07:58:19.533Z,46.70
2022-12-04T07:59:23.288Z,45.30
2022-12-04T08:00:25.974Z,40.30
2022-12-04T08:01:29.770Z,43.50
2022-12-04T08:02:32.542Z,47.65
2022-12-04T08:03:36.384Z,42.60
2022-12-04T08:04:40.058Z,46.47
2022-12-04T08:05:42.701Z,45.63
2022-12-04T08:06:46.496Z,45.22
2022-12-04T08:07:49.218Z,50.58
2022-12-04T08:08:53.812Z,38.30
2022-12-04T08:09:58.082Z,39.15
2022-12-04T08:11:02.608Z,33.70
2022-12-04T08:12:06.773Z,43.83
2022-12-04T08:13:10.527Z,41.13
2022-12-04T08:14:13.672Z,40.97
2022-12-04T08:15:17.470Z,32.75
2022-12-04T08:16:20.190Z,39.97
2022-12-04T08:17:24.112Z,34.60
2022-12-04T08:18:26.855Z,34.40
2022-12-04T08:19:30.523Z,35.42
2022-12-04T08:20:33.203Z,30.98
2022-12-04T08:21:37.014Z,32.28
2022-12-04T08:22:39.992Z,33.08
2022-12-04T08:23:44.759Z,37.42
2022-12-04T08:24:47.388Z,35.45
2022-12-04T08:25:52.578Z,35.85
2022-12-04T08:26:55.365Z,35.05
2022-12-04T08:27:59.363Z,35.50
2022-12-04T08:29:03.615Z,36.38
2022-12-04T08:30:07.919Z,33.00
2022-12-04T08:31:13.897Z,36.15
2022-12-04T08:32:17.734Z,35.90
2022-12-04T08:33:20.435Z,35.30
2022-12-04T08:34:24.153Z,30.70
2022-12-04T08:35:26.854Z,33.08
2022-12-04T08:36:30.573Z,33.92
2022-12-04T08:37:34.555Z,31.17
2022-12-04T08:38:37.676Z,32.35
2022-12-04T08:39:41.547Z,29.30
2022-12-04T08:40:44.173Z,31.70
2022-12-04T08:41:53.866Z,31.15
2022-12-04T08:43:00.585Z,28.95
2022-12-04T08:44:04.422Z,29.70
2022-12-04T08:45:08.505Z,27.13
2022-12-04T08:46:13.394Z,29.50
2022-12-04T08:47:17.205Z,29.20
2022-12-04T08:48:20.925Z,31.05
2022-12-04T08:49:24.658Z,32.08
2022-12-04T08:50:28.554Z,29.02
2022-12-04T08:51:34.964Z,28.67
2022-12-04T08:52:38.696Z,29.77
2022-12-04T08:53:41.302Z,30.27
2022-12-04T08:54:44.994Z,28.58
2022-12-04T08:55:48.974Z,27.40
2022-12-04T08:56:54.091Z,29.00
2022-12-04T08:57:56.736Z,31.38
2022-12-04T08:59:01.264Z,28.48
2022-12-04T09:00:04.751Z,31.23
2022-12-04T09:01:09.535Z,26.73
2022-12-04T09:02:14.054Z,25.83
2022-12-04T09:03:18.276Z,25.33
2022-12-04T09:04:22.020Z,24.40
2022-12-04T09:05:24.724Z,25.48
2022-12-04T09:06:28.535Z,24.00
2022-12-04T09:07:32.358Z,21.80
2022-12-04T09:08:36.111Z,24.75
2022-12-04T09:09:44.954Z,24.20
2022-12-04T09:10:50.624Z,24.45
2022-12-04T09:11:55.945Z,23.45
2022-12-04T09:12:58.593Z,22.02
2022-12-04T09:14:03.288Z,26.35
2022-12-04T09:15:07.188Z,27.58
2022-12-04T09:16:13.257Z,22.73
2022-12-04T09:17:17.053Z,26.08
2022-12-04T09:18:20.785Z,23.30
2022-12-04T09:19:23.484Z,25.45
2022-12-04T09:20:27.258Z,24.88
2022-12-04T09:21:29.983Z,27.70
2022-12-04T09:22:57.736Z,23.92
2022-12-04T09:24:00.691Z,22.98
2022-12-04T09:25:05.263Z,22.83
2022-12-04T09:26:19.670Z,25.08
2022-12-04T09:27:24.786Z,26.25
2022-12-04T09:28:27.795Z,23.98
2022-12-04T09:29:31.544Z,28.38
2022-12-04T09:30:34.335Z,26.88
2022-12-04T09:31:38.331Z,26.33
2022-12-04T09:32:41.104Z,28.67
2022-12-04T09:33:44.995Z,27.50
2022-12-04T09:34:51.351Z,29.40
2022-12-04T09:35:56.631Z,25.85
2022-12-04T09:36:59.335Z,28.77
2022-12-04T09:38:03.084Z,28.50
2022-12-04T09:39:06.866Z,25.02
2022-12-04T09:40:22.433Z,24.38
2022-12-04T09:41:57.045Z,26.92
2022-12-04T09:43:06.948Z,28.98
2022-12-04T09:44:16.917Z,27.67
2022-12-04T09:45:23.591Z,27.40
2022-12-04T09:46:33.144Z,30.17
2022-12-04T09:47:41.361Z,29.42
2022-12-04T09:48:49.595Z,28.17
2022-12-04T09:49:56.301Z,26.15
2022-12-04T09:51:00.183Z,24.38
2022-12-04T09:52:22.033Z,25.20
2022-12-04T09:53:29.085Z,28.85
2022-12-04T09:54:38.806Z,22.40
2022-12-04T09:55:45.016Z,25.55
2022-12-04T09:56:53.884Z,26.15
2022-12-04T09:58:02.116Z,24.73
2022-12-04T09:59:11.563Z,26.95
2022-12-04T10:00:18.127Z,25.58
2022-12-04T10:01:23.846Z,24.25
2022-12-04T10:02:36.520Z,27.30
2022-12-04T10:03:41.829Z,28.08
2022-12-04T10:04:44.593Z,28.92
2022-12-04T10:05:54.212Z,26.52
2022-12-04T10:07:02.491Z,27.77
2022-12-04T10:08:12.687Z,26.73
2022-12-04T10:09:23.297Z,26.52
2022-12-04T10:10:34.975Z,22.58
2022-12-04T10:11:45.468Z,24.38
2022-12-04T10:12:53.972Z,23.17
2022-12-04T10:14:06.042Z,23.65
2022-12-04T10:15:22.394Z,25.67
2022-12-04T10:16:29.259Z,23.67
2022-12-04T10:17:56.106Z,25.27
2022-12-04T10:19:05.044Z,26.85
2022-12-04T10:20:17.944Z,26.02
2022-12-04T10:21:43.015Z,24.05
2022-12-04T10:22:52.335Z,24.77
2022-12-04T10:24:03.730Z,27.40
2022-12-04T10:25:10.595Z,24.98
2022-12-04T10:26:17.007Z,22.60
2022-12-04T10:27:22.563Z,23.42
2022-12-04T10:28:29.095Z,23.05
2022-12-04T10:29:33.963Z,23.00
2022-12-04T10:30:39.755Z,20.58
2022-12-04T10:31:45.343Z,24.38
2022-12-04T10:32:50.105Z,25.33
2022-12-04T10:33:54.490Z,24.83
2022-12-04T10:35:01.302Z,25.58
2022-12-04T10:36:05.166Z,27.77
2022-12-04T10:37:14.042Z,23.08
2022-12-04T10:38:33.333Z,23.00
2022-12-04T10:39:39.501Z,20.35
2022-12-04T10:40:49.424Z,21.95
2022-12-04T10:41:56.154Z,23.42
2022-12-04T10:43:05.674Z,21.17
2022-12-04T10:44:11.596Z,21.10
2022-12-04T10:45:14.371Z,24.48
2022-12-04T10:46:23.526Z,25.92
2022-12-04T10:47:27.410Z,21.35
2022-12-04T10:48:34.361Z,24.48
2022-12-04T10:49:38.864Z,22.52
2022-12-04T10:50:42.536Z,23.10
2022-12-04T10:51:46.919Z,21.20
2022-12-04T10:52:49.815Z,22.08
2022-12-04T10:53:53.668Z,24.40
2022-12-04T10:54:59.643Z,20.35
2022-12-04T10:56:13.336Z,23.33
2022-12-04T10:57:16.535Z,25.10
2022-12-04T10:58:21.284Z,26.27
2022-12-04T10:59:24.495Z,22.77
2022-12-04T11:00:30.800Z,24.65
2022-12-04T11:01:37.100Z,24.50
2022-12-04T11:02:40.273Z,24.65
2022-12-04T11:03:46.129Z,25.75
2022-12-04T11:04:54.481Z,26.17
2022-12-04T11:05:59.594Z,25.67
2022-12-04T11:07:05.035Z,24.73
2022-12-04T11:08:09.455Z,26.85
2022-12-04T11:09:22.516Z,26.50
2022-12-04T11:10:37.013Z,24.42
2022-12-04T11:11:40.774Z,26.30
2022-12-04T11:12:54.395Z,23.98
2022-12-04T11:14:05.891Z,24.80
2022-12-04T11:15:14.880Z,23.13
2022-12-04T11:16:34.899Z,25.83
2022-12-04T11:17:40.141Z,24.92
2022-12-04T11:18:48.481Z,22.27
2022-12-04T11:20:00.994Z,24.77
2022-12-04T11:21:06.292Z,24.13
2022-12-04T11:22:15.228Z,25.25
2022-12-04T11:23:18.243Z,25.98
2022-12-04T11:24:24.778Z,24.27
2022-12-04T11:25:29.883Z,20.85
2022-12-04T11:26:35.726Z,26.40
2022-12-04T11:27:38.512Z,24.80
2022-12-04T11:28:45.905Z,22.27
2022-12-04T11:29:49.236Z,24.15
2022-12-04T11:30:55.098Z,20.30
2022-12-04T11:32:04.193Z,24.90
2022-12-04T11:33:20.046Z,23.38
2022-12-04T11:34:25.175Z,26.55
2022-12-04T11:35:30.731Z,23.75
2022-12-04T11:36:37.021Z,24.17
2022-12-04T11:37:45.204Z,23.48
2022-12-04T11:38:49.753Z,26.33
2022-12-04T11:39:54.597Z,24.33
2022-12-04T11:41:00.455Z,25.10
2022-12-04T11:42:06.027Z,25.10
2022-12-04T11:43:15.426Z,24.90
2022-12-04T11:44:26.456Z,22.80
2022-12-04T11:45:29.255Z,25.17
2022-12-04T11:46:34.631Z,20.42
2022-12-04T11:47:37.695Z,22.75
2022-12-04T11:48:47.096Z,21.77
2022-12-04T11:50:01.660Z,22.50
2022-12-04T11:51:08.253Z,21.95
2022-12-04T11:52:23.055Z,24.02
2022-12-04T11:53:36.321Z,26.23
2022-12-04T11:54:49.387Z,25.00
2022-12-04T11:56:11.057Z,21.95
2022-12-04T11:57:23.958Z,24.02
2022-12-04T11:58:45.154Z,25.73
2022-12-04T12:00:06.580Z,23.17
2022-12-04T12:01:22.203Z,24.90
2022-12-04T12:02:39.944Z,23.60
2022-12-04T12:03:57.807Z,27.23
2022-12-04T12:05:16.781Z,23.90
2022-12-04T12:06:32.251Z,22.63
2022-12-04T12:07:42.184Z,26.15
2022-12-04T12:09:03.875Z,24.92
2022-12-04T12:10:11.145Z,24.90
2022-12-04T12:11:23.523Z,27.92
2022-12-04T12:12:33.369Z,26.73
2022-12-04T12:13:46.283Z,23.15
2022-12-04T12:14:58.846Z,26.02
2022-12-04T12:16:11.284Z,27.83
2022-12-04T12:17:21.962Z,29.25
2022-12-04T12:18:41.606Z,27.50
2022-12-04T12:20:04.274Z,25.92
2022-12-04T12:21:10.473Z,29.92
2022-12-04T12:22:22.083Z,29.73
2022-12-04T12:23:45.672Z,28.77
2022-12-04T12:24:57.291Z,35.67
2022-12-04T12:26:06.615Z,32.58
2022-12-04T12:27:28.435Z,30.15
2022-12-04T12:28:42.859Z,30.65
2022-12-04T12:29:59.549Z,26.58
2022-12-04T12:31:23.325Z,32.50
2022-12-04T12:32:36.630Z,30.77
2022-12-04T12:33:43.874Z,30.45
2022-12-04T12:34:49.999Z,29.00
2022-12-04T12:36:04.802Z,29.25
2022-12-04T12:37:16.308Z,28.40
2022-12-04T12:38:23.187Z,30.75
2022-12-04T12:39:31.300Z,25.55
2022-12-04T12:40:39.241Z,29.27
2022-12-04T12:41:46.213Z,25.05
2022-12-04T12:42:58.742Z,29.13
2022-12-04T12:44:12.496Z,25.67
2022-12-04T12:45:27.481Z,25.27
2022-12-04T12:46:37.611Z,29.08
2022-12-04T12:47:45.343Z,24.65
2022-12-04T12:48:58.484Z,28.60
2022-12-04T12:50:07.746Z,29.30
2022-12-04T12:51:30.148Z,29.45
2022-12-04T12:52:38.409Z,29.38
2022-12-04T12:53:46.068Z,29.30
2022-12-04T12:54:56.923Z,28.75
2022-12-04T12:56:05.378Z,28.83
2022-12-04T12:57:13.600Z,30.88
2022-12-04T12:58:23.951Z,31.13
2022-12-04T12:59:30.515Z,25.88
2022-12-04T13:00:41.212Z,27.25
2022-12-04T13:01:48.775Z,27.23
2022-12-04T13:02:59.355Z,25.95
2022-12-04T13:04:10.056Z,27.52
2022-12-04T13:05:17.885Z,30.45
2022-12-04T13:06:29.938Z,29.13
2022-12-04T13:07:44.938Z,27.33
2022-12-04T13:08:58.396Z,30.25
2022-12-04T13:10:08.344Z,31.48
2022-12-04T13:11:14.492Z,31.98
2022-12-04T13:12:23.295Z,30.13
2022-12-04T13:13:30.705Z,34.33
2022-12-04T13:14:36.290Z,33.08
2022-12-04T13:15:46.161Z,30.20
2022-12-04T13:16:54.517Z,34.78
2022-12-04T13:17:59.925Z,33.28
2022-12-04T13:19:11.063Z,33.33
2022-12-04T13:20:19.673Z,36.75
2022-12-04T13:21:36.060Z,37.80
2022-12-04T13:22:50.704Z,36.10
2022-12-04T13:24:06.883Z,34.40
2022-12-04T13:25:24.250Z,36.40
2022-12-04T13:26:41.695Z,33.00
2022-12-04T13:28:00.087Z,33.20
2022-12-04T13:29:14.528Z,31.90
2022-12-04T13:30:24.128Z,33.45
2022-12-04T13:31:38.821Z,31.35
2022-12-04T13:33:21.563Z,33.15
2022-12-04T13:34:41.581Z,36.13
2022-12-04T13:36:07.009Z,36.40
2022-12-04T13:37:29.313Z,41.88
2022-12-04T13:38:42.945Z,37.15
2022-12-04T13:40:32.659Z,42.55
2022-12-04T13:41:41.026Z,34.42
2022-12-04T13:42:45.750Z,42.15
2022-12-04T13:43:53.015Z,35.17
2022-12-04T13:44:59.908Z,41.03
2022-12-04T13:46:08.951Z,37.28
2022-12-04T13:47:29.070Z,37.35
2022-12-04T13:48:40.898Z,40.47
2022-12-04T13:49:47.845Z,37.50
2022-12-04T13:51:05.147Z,45.00
2022-12-04T13:52:27.552Z,40.50
2022-12-04T13:53:33.896Z,37.53
2022-12-04T13:54:39.947Z,37.50
2022-12-04T13:55:44.531Z,36.47
2022-12-04T13:56:50.762Z,37.08
2022-12-04T13:57:54.453Z,37.55
2022-12-04T13:59:03.241Z,40.17
2022-12-04T14:00:24.925Z,42.38
2022-12-04T14:01:31.255Z,40.03
2022-12-04T14:02:38.050Z,38.38
2022-12-04T14:03:48.350Z,42.03
2022-12-04T14:04:57.677Z,41.88
2022-12-04T14:06:05.470Z,43.58
2022-12-04T14:07:09.345Z,38.97
2022-12-04T14:08:25.011Z,44.58
2022-12-04T14:09:31.517Z,40.45
2022-12-04T14:10:38.485Z,39.97
2022-12-04T14:11:45.053Z,40.80
2022-12-04T14:12:57.265Z,42.17
2022-12-04T14:14:07.772Z,41.20
2022-12-04T14:15:22.753Z,38.75
2022-12-04T14:16:29.224Z,41.88
2022-12-04T14:17:33.189Z,40.13
2022-12-04T14:18:37.022Z,47.10
2022-12-04T14:19:42.700Z,45.85
2022-12-04T14:20:46.487Z,46.55
2022-12-04T14:21:49.204Z,42.95
2022-12-04T14:22:53.044Z,45.55
2022-12-04T14:23:57.174Z,43.72
2022-12-04T14:25:09.225Z,45.72